sensor_id;sensor_type;location;lat;lon;timestamp;temperature;humidity
76857;DHT22;65829;44.726;37.764;2022-12-13T00:01:40;14.25;98.48
76857;DHT22;65829;44.726;37.764;2022-12-13T00:04:08;14.26;98.18
76857;DHT22;65829;44.726;37.764;2022-12-13T00:06:35;14.25;97.90
76857;DHT22;65829;44.726;37.764;2022-12-13T00:09:04;14.26;98.23
76857;DHT22;65829;44.726;37.764;2022-12-13T00:11:31;14.25;98.39
76857;DHT22;65829;44.726;37.764;2022-12-13T00:14:00;14.25;98.58
76857;DHT22;65829;44.726;37.764;2022-12-13T00:16:27;14.25;98.61
76857;DHT22;65829;44.726;37.764;2022-12-13T00:18:56;14.24;98.59
76857;DHT22;65829;44.726;37.764;2022-12-13T00:21:29;14.24;98.76
76857;DHT22;65829;44.726;37.764;2022-12-13T00:23:57;14.21;98.79
76857;DHT22;65829;44.726;37.764;2022-12-13T00:26:26;14.19;98.79
76857;DHT22;65829;44.726;37.764;2022-12-13T00:28:53;14.18;98.80
76857;DHT22;65829;44.726;37.764;2022-12-13T00:31:22;14.19;99.03
76857;DHT22;65829;44.726;37.764;2022-12-13T00:33:49;14.19;99.17
76857;DHT22;65829;44.726;37.764;2022-12-13T00:36:16;14.18;98.79
76857;DHT22;65829;44.726;37.764;2022-12-13T00:38:42;14.12;98.55
76857;DHT22;65829;44.726;37.764;2022-12-13T00:43:40;14.13;98.90
76857;DHT22;65829;44.726;37.764;2022-12-13T00:46:18;14.10;98.71
76857;DHT22;65829;44.726;37.764;2022-12-13T00:48:50;14.09;98.67
76857;DHT22;65829;44.726;37.764;2022-12-13T00:51:17;14.05;98.67
76857;DHT22;65829;44.726;37.764;2022-12-13T00:53:44;14.01;98.87
76857;DHT22;65829;44.726;37.764;2022-12-13T00:56:13;13.98;98.90
76857;DHT22;65829;44.726;37.764;2022-12-13T00:58:40;13.98;99.20
76857;DHT22;65829;44.726;37.764;2022-12-13T01:01:11;13.96;99.32
76857;DHT22;65829;44.726;37.764;2022-12-13T01:03:38;13.89;99.16
76857;DHT22;65829;44.726;37.764;2022-12-13T01:06:13;13.88;99.32
76857;DHT22;65829;44.726;37.764;2022-12-13T01:08:41;13.82;99.42
76857;DHT22;65829;44.726;37.764;2022-12-13T01:11:08;13.79;99.56
76857;DHT22;65829;44.726;37.764;2022-12-13T01:13:36;13.77;99.72
76857;DHT22;65829;44.726;37.764;2022-12-13T01:16:05;13.77;99.75
76857;DHT22;65829;44.726;37.764;2022-12-13T01:18:32;13.74;99.96
76857;DHT22;65829;44.726;37.764;2022-12-13T01:21:04;13.76;100.16
76857;DHT22;65829;44.726;37.764;2022-12-13T01:23:32;13.78;100.17
76857;DHT22;65829;44.726;37.764;2022-12-13T01:26:01;13.81;100.22
76857;DHT22;65829;44.726;37.764;2022-12-13T01:28:29;13.83;100.15
76857;DHT22;65829;44.726;37.764;2022-12-13T01:30:57;13.88;100.11
76857;DHT22;65829;44.726;37.764;2022-12-13T01:33:24;13.86;99.94
76857;DHT22;65829;44.726;37.764;2022-12-13T01:35:52;13.85;99.78
76857;DHT22;65829;44.726;37.764;2022-12-13T01:38:19;13.89;99.56
76857;DHT22;65829;44.726;37.764;2022-12-13T01:40:50;13.89;99.55
76857;DHT22;65829;44.726;37.764;2022-12-13T01:46:03;13.91;99.26
76857;DHT22;65829;44.726;37.764;2022-12-13T01:48:34;13.93;99.32
76857;DHT22;65829;44.726;37.764;2022-12-13T01:51:02;13.98;99.29
76857;DHT22;65829;44.726;37.764;2022-12-13T01:53:34;13.99;98.86
76857;DHT22;65829;44.726;37.764;2022-12-13T01:56:14;13.99;98.64
76857;DHT22;65829;44.726;37.764;2022-12-13T01:58:44;14.00;98.60
76857;DHT22;65829;44.726;37.764;2022-12-13T02:01:12;14.04;98.63
76857;DHT22;65829;44.726;37.764;2022-12-13T02:03:39;14.06;98.64
76857;DHT22;65829;44.726;37.764;2022-12-13T02:06:13;14.10;98.57
76857;DHT22;65829;44.726;37.764;2022-12-13T02:08:43;14.08;98.46
76857;DHT22;65829;44.726;37.764;2022-12-13T02:11:10;14.08;98.48
76857;DHT22;65829;44.726;37.764;2022-12-13T02:13:38;14.07;98.61
76857;DHT22;65829;44.726;37.764;2022-12-13T02:35:49;14.12;99.32
76857;DHT22;65829;44.726;37.764;2022-12-13T02:38:15;14.14;99.22
76857;DHT22;65829;44.726;37.764;2022-12-13T02:40:53;14.14;99.06
76857;DHT22;65829;44.726;37.764;2022-12-13T02:43:37;14.14;98.90
76857;DHT22;65829;44.726;37.764;2022-12-13T02:46:06;14.13;98.87
76857;DHT22;65829;44.726;37.764;2022-12-13T02:48:37;14.17;98.84
76857;DHT22;65829;44.726;37.764;2022-12-13T02:51:08;14.15;98.88
76857;DHT22;65829;44.726;37.764;2022-12-13T02:53:36;14.15;99.00
76857;DHT22;65829;44.726;37.764;2022-12-13T02:56:05;14.14;99.13
76857;DHT22;65829;44.726;37.764;2022-12-13T02:58:34;14.15;98.98
76857;DHT22;65829;44.726;37.764;2022-12-13T03:06:44;14.15;98.52
76857;DHT22;65829;44.726;37.764;2022-12-13T03:15:08;14.21;98.88
76857;DHT22;65829;44.726;37.764;2022-12-13T03:17:56;14.23;98.71
76857;DHT22;65829;44.726;37.764;2022-12-13T03:20:27;14.25;98.52
76857;DHT22;65829;44.726;37.764;2022-12-13T03:22:55;14.24;98.52
76857;DHT22;65829;44.726;37.764;2022-12-13T03:25:24;14.23;98.57
76857;DHT22;65829;44.726;37.764;2022-12-13T03:27:51;14.22;98.60
76857;DHT22;65829;44.726;37.764;2022-12-13T03:30:18;14.24;98.64
76857;DHT22;65829;44.726;37.764;2022-12-13T03:32:45;14.23;98.77
76857;DHT22;65829;44.726;37.764;2022-12-13T03:35:11;14.25;98.87
76857;DHT22;65829;44.726;37.764;2022-12-13T03:37:38;14.23;98.97
76857;DHT22;65829;44.726;37.764;2022-12-13T03:40:05;14.24;98.75
76857;DHT22;65829;44.726;37.764;2022-12-13T03:42:33;14.26;98.76
76857;DHT22;65829;44.726;37.764;2022-12-13T03:45:00;14.26;98.75
76857;DHT22;65829;44.726;37.764;2022-12-13T03:47:26;14.25;98.51
76857;DHT22;65829;44.726;37.764;2022-12-13T03:49:53;14.26;98.40
76857;DHT22;65829;44.726;37.764;2022-12-13T03:52:21;14.24;98.13
76857;DHT22;65829;44.726;37.764;2022-12-13T03:54:47;14.25;98.37
76857;DHT22;65829;44.726;37.764;2022-12-13T03:57:14;14.24;98.23
76857;DHT22;65829;44.726;37.764;2022-12-13T03:59:41;14.25;98.32
76857;DHT22;65829;44.726;37.764;2022-12-13T04:02:08;14.22;98.06
76857;DHT22;65829;44.726;37.764;2022-12-13T04:04:34;14.23;97.92
76857;DHT22;65829;44.726;37.764;2022-12-13T04:07:01;14.21;98.07
76857;DHT22;65829;44.726;37.764;2022-12-13T04:09:27;14.23;98.43
76857;DHT22;65829;44.726;37.764;2022-12-13T04:11:54;14.21;98.25
76857;DHT22;65829;44.726;37.764;2022-12-13T04:14:39;14.24;98.04
76857;DHT22;65829;44.726;37.764;2022-12-13T04:17:06;14.23;98.09
76857;DHT22;65829;44.726;37.764;2022-12-13T04:19:32;14.23;97.98
76857;DHT22;65829;44.726;37.764;2022-12-13T04:22:00;14.25;97.96
76857;DHT22;65829;44.726;37.764;2022-12-13T04:24:26;14.24;97.78
76857;DHT22;65829;44.726;37.764;2022-12-13T04:26:53;14.22;97.94
76857;DHT22;65829;44.726;37.764;2022-12-13T04:29:19;14.21;98.13
76857;DHT22;65829;44.726;37.764;2022-12-13T04:31:46;14.22;98.26
76857;DHT22;65829;44.726;37.764;2022-12-13T04:34:12;14.23;98.16
76857;DHT22;65829;44.726;37.764;2022-12-13T04:36:39;14.22;98.39
76857;DHT22;65829;44.726;37.764;2022-12-13T04:39:06;14.18;98.54
76857;DHT22;65829;44.726;37.764;2022-12-13T04:41:37;14.17;98.67
76857;DHT22;65829;44.726;37.764;2022-12-13T04:44:06;14.13;98.80
76857;DHT22;65829;44.726;37.764;2022-12-13T04:46:34;14.14;98.81
76857;DHT22;65829;44.726;37.764;2022-12-13T04:49:01;14.12;98.68
76857;DHT22;65829;44.726;37.764;2022-12-13T04:51:27;14.12;98.71
76857;DHT22;65829;44.726;37.764;2022-12-13T04:53:54;14.12;98.42
76857;DHT22;65829;44.726;37.764;2022-12-13T04:56:20;14.09;97.76
76857;DHT22;65829;44.726;37.764;2022-12-13T04:58:47;14.08;98.00
76857;DHT22;65829;44.726;37.764;2022-12-13T05:01:14;14.08;98.26
76857;DHT22;65829;44.726;37.764;2022-12-13T05:03:40;14.07;98.53
76857;DHT22;65829;44.726;37.764;2022-12-13T05:06:09;14.05;98.25
76857;DHT22;65829;44.726;37.764;2022-12-13T05:08:36;14.05;98.20
76857;DHT22;65829;44.726;37.764;2022-12-13T05:11:04;14.06;98.11
76857;DHT22;65829;44.726;37.764;2022-12-13T05:13:31;14.03;97.68
76857;DHT22;65829;44.726;37.764;2022-12-13T05:15:59;14.01;97.87
76857;DHT22;65829;44.726;37.764;2022-12-13T05:18:26;14.04;98.04
76857;DHT22;65829;44.726;37.764;2022-12-13T05:20:53;14.01;97.95
76857;DHT22;65829;44.726;37.764;2022-12-13T05:23:22;13.99;97.95
76857;DHT22;65829;44.726;37.764;2022-12-13T05:25:50;13.97;98.02
76857;DHT22;65829;44.726;37.764;2022-12-13T05:28:17;13.98;98.13
76857;DHT22;65829;44.726;37.764;2022-12-13T05:30:44;13.96;97.71
76857;DHT22;65829;44.726;37.764;2022-12-13T05:33:11;13.95;97.49
76857;DHT22;65829;44.726;37.764;2022-12-13T05:35:37;13.93;96.91
76857;DHT22;65829;44.726;37.764;2022-12-13T05:38:04;13.91;96.43
76857;DHT22;65829;44.726;37.764;2022-12-13T05:40:30;13.90;96.73
76857;DHT22;65829;44.726;37.764;2022-12-13T05:42:57;13.91;96.83
76857;DHT22;65829;44.726;37.764;2022-12-13T05:45:25;13.89;96.57
76857;DHT22;65829;44.726;37.764;2022-12-13T05:47:51;13.89;96.20
76857;DHT22;65829;44.726;37.764;2022-12-13T05:50:18;13.86;96.20
76857;DHT22;65829;44.726;37.764;2022-12-13T05:52:45;13.84;95.71
76857;DHT22;65829;44.726;37.764;2022-12-13T05:55:12;13.85;95.43
76857;DHT22;65829;44.726;37.764;2022-12-13T05:57:39;13.86;94.88
76857;DHT22;65829;44.726;37.764;2022-12-13T06:00:07;13.88;95.17
76857;DHT22;65829;44.726;37.764;2022-12-13T06:02:40;13.86;95.14
76857;DHT22;65829;44.726;37.764;2022-12-13T06:05:08;13.90;95.38
76857;DHT22;65829;44.726;37.764;2022-12-13T06:07:36;13.91;94.92
76857;DHT22;65829;44.726;37.764;2022-12-13T06:10:03;13.94;94.87
76857;DHT22;65829;44.726;37.764;2022-12-13T06:12:32;13.96;94.78
76857;DHT22;65829;44.726;37.764;2022-12-13T06:14:59;13.99;95.07
76857;DHT22;65829;44.726;37.764;2022-12-13T06:17:30;13.99;95.23
76857;DHT22;65829;44.726;37.764;2022-12-13T06:19:57;14.04;95.73
76857;DHT22;65829;44.726;37.764;2022-12-13T06:22:25;14.06;95.10
76857;DHT22;65829;44.726;37.764;2022-12-13T06:24:52;14.07;95.30
76857;DHT22;65829;44.726;37.764;2022-12-13T06:27:20;14.05;94.95
76857;DHT22;65829;44.726;37.764;2022-12-13T06:29:47;14.05;94.35
76857;DHT22;65829;44.726;37.764;2022-12-13T06:32:13;14.03;93.91
76857;DHT22;65829;44.726;37.764;2022-12-13T06:34:40;14.01;93.51
76857;DHT22;65829;44.726;37.764;2022-12-13T06:37:10;14.03;94.12
76857;DHT22;65829;44.726;37.764;2022-12-13T06:39:38;14.04;94.70
76857;DHT22;65829;44.726;37.764;2022-12-13T06:42:06;14.05;94.49
76857;DHT22;65829;44.726;37.764;2022-12-13T06:44:35;14.06;94.17
76857;DHT22;65829;44.726;37.764;2022-12-13T06:47:03;14.05;94.45
76857;DHT22;65829;44.726;37.764;2022-12-13T06:49:30;14.04;94.88
76857;DHT22;65829;44.726;37.764;2022-12-13T06:51:56;14.05;94.66
76857;DHT22;65829;44.726;37.764;2022-12-13T06:54:23;14.01;95.32
76857;DHT22;65829;44.726;37.764;2022-12-13T06:56:49;14.00;95.52
76857;DHT22;65829;44.726;37.764;2022-12-13T06:59:16;14.01;95.20
76857;DHT22;65829;44.726;37.764;2022-12-13T07:01:42;13.99;95.26
76857;DHT22;65829;44.726;37.764;2022-12-13T07:04:10;13.99;95.05
76857;DHT22;65829;44.726;37.764;2022-12-13T07:06:38;13.99;95.07
76857;DHT22;65829;44.726;37.764;2022-12-13T07:09:04;13.98;95.12
76857;DHT22;65829;44.726;37.764;2022-12-13T07:11:32;14.04;94.91
76857;DHT22;65829;44.726;37.764;2022-12-13T07:14:00;14.03;95.41
76857;DHT22;65829;44.726;37.764;2022-12-13T07:16:27;14.03;94.62
76857;DHT22;65829;44.726;37.764;2022-12-13T07:18:55;13.98;94.94
76857;DHT22;65829;44.726;37.764;2022-12-13T07:21:22;13.97;95.57
76857;DHT22;65829;44.726;37.764;2022-12-13T07:23:49;13.95;95.46
76857;DHT22;65829;44.726;37.764;2022-12-13T07:26:17;13.94;95.21
76857;DHT22;65829;44.726;37.764;2022-12-13T07:28:44;13.95;95.11
76857;DHT22;65829;44.726;37.764;2022-12-13T07:31:11;13.95;95.47
76857;DHT22;65829;44.726;37.764;2022-12-13T07:33:38;13.94;95.39
76857;DHT22;65829;44.726;37.764;2022-12-13T07:36:07;13.95;95.03
76857;DHT22;65829;44.726;37.764;2022-12-13T07:38:37;13.99;95.44
76857;DHT22;65829;44.726;37.764;2022-12-13T07:41:04;14.00;95.16
76857;DHT22;65829;44.726;37.764;2022-12-13T07:43:31;14.07;94.87
76857;DHT22;65829;44.726;37.764;2022-12-13T07:46:00;14.07;94.09
76857;DHT22;65829;44.726;37.764;2022-12-13T07:48:27;14.08;94.08
76857;DHT22;65829;44.726;37.764;2022-12-13T07:51:00;14.10;93.75
76857;DHT22;65829;44.726;37.764;2022-12-13T07:53:27;14.08;93.80
76857;DHT22;65829;44.726;37.764;2022-12-13T07:55:54;14.05;93.14
76857;DHT22;65829;44.726;37.764;2022-12-13T07:58:20;14.07;93.89
76857;DHT22;65829;44.726;37.764;2022-12-13T08:00:48;14.10;94.17
76857;DHT22;65829;44.726;37.764;2022-12-13T08:03:15;14.14;94.18
76857;DHT22;65829;44.726;37.764;2022-12-13T08:05:42;14.14;94.35
76857;DHT22;65829;44.726;37.764;2022-12-13T08:08:09;14.15;94.33
76857;DHT22;65829;44.726;37.764;2022-12-13T08:10:37;14.15;93.80
76857;DHT22;65829;44.726;37.764;2022-12-13T08:13:04;14.12;94.23
76857;DHT22;65829;44.726;37.764;2022-12-13T08:15:30;14.10;94.69
76857;DHT22;65829;44.726;37.764;2022-12-13T08:17:57;14.13;94.46
76857;DHT22;65829;44.726;37.764;2022-12-13T08:20:27;14.14;94.64
76857;DHT22;65829;44.726;37.764;2022-12-13T08:22:57;14.14;94.43
76857;DHT22;65829;44.726;37.764;2022-12-13T08:25:25;14.14;94.69
76857;DHT22;65829;44.726;37.764;2022-12-13T08:27:51;14.10;94.94
76857;DHT22;65829;44.726;37.764;2022-12-13T08:30:18;14.08;95.17
76857;DHT22;65829;44.726;37.764;2022-12-13T08:32:45;14.10;95.22
76857;DHT22;65829;44.726;37.764;2022-12-13T08:35:11;14.09;94.88
76857;DHT22;65829;44.726;37.764;2022-12-13T08:37:38;14.07;95.26
76857;DHT22;65829;44.726;37.764;2022-12-13T08:40:05;14.07;94.81
76857;DHT22;65829;44.726;37.764;2022-12-13T08:42:32;14.06;94.71
76857;DHT22;65829;44.726;37.764;2022-12-13T08:44:58;14.04;95.14
76857;DHT22;65829;44.726;37.764;2022-12-13T08:47:26;14.04;94.97
76857;DHT22;65829;44.726;37.764;2022-12-13T08:49:57;14.01;94.53
76857;DHT22;65829;44.726;37.764;2022-12-13T08:52:28;14.01;94.62
76857;DHT22;65829;44.726;37.764;2022-12-13T08:54:55;13.99;95.09
76857;DHT22;65829;44.726;37.764;2022-12-13T08:57:21;13.99;95.08
76857;DHT22;65829;44.726;37.764;2022-12-13T08:59:48;14.00;94.11
76857;DHT22;65829;44.726;37.764;2022-12-13T09:02:15;13.99;94.65
76857;DHT22;65829;44.726;37.764;2022-12-13T09:04:42;14.00;94.41
76857;DHT22;65829;44.726;37.764;2022-12-13T09:07:08;13.99;94.51
76857;DHT22;65829;44.726;37.764;2022-12-13T09:09:35;13.99;94.33
76857;DHT22;65829;44.726;37.764;2022-12-13T09:12:02;13.97;94.63
76857;DHT22;65829;44.726;37.764;2022-12-13T09:14:29;14.03;94.20
76857;DHT22;65829;44.726;37.764;2022-12-13T09:16:55;14.06;93.33
76857;DHT22;65829;44.726;37.764;2022-12-13T09:19:22;14.05;93.42
76857;DHT22;65829;44.726;37.764;2022-12-13T09:21:50;14.09;93.77
76857;DHT22;65829;44.726;37.764;2022-12-13T09:24:17;14.10;93.53
76857;DHT22;65829;44.726;37.764;2022-12-13T09:26:43;14.12;93.24
76857;DHT22;65829;44.726;37.764;2022-12-13T09:29:10;14.11;93.17
76857;DHT22;65829;44.726;37.764;2022-12-13T09:31:36;14.13;93.40
76857;DHT22;65829;44.726;37.764;2022-12-13T09:34:05;14.12;93.28
76857;DHT22;65829;44.726;37.764;2022-12-13T09:36:31;14.15;93.26
76857;DHT22;65829;44.726;37.764;2022-12-13T09:38:58;14.14;92.37
76857;DHT22;65829;44.726;37.764;2022-12-13T09:41:46;14.13;91.87
76857;DHT22;65829;44.726;37.764;2022-12-13T09:44:35;14.12;91.98
76857;DHT22;65829;44.726;37.764;2022-12-13T09:47:06;14.09;91.69
76857;DHT22;65829;44.726;37.764;2022-12-13T09:49:39;14.12;90.87
76857;DHT22;65829;44.726;37.764;2022-12-13T09:52:12;14.13;91.03
76857;DHT22;65829;44.726;37.764;2022-12-13T09:54:39;14.13;91.43
76857;DHT22;65829;44.726;37.764;2022-12-13T09:57:17;14.12;91.61
76857;DHT22;65829;44.726;37.764;2022-12-13T09:59:44;14.14;91.76
76857;DHT22;65829;44.726;37.764;2022-12-13T10:02:16;14.13;91.07
76857;DHT22;65829;44.726;37.764;2022-12-13T10:04:47;14.11;91.12
76857;DHT22;65829;44.726;37.764;2022-12-13T10:07:21;14.09;91.21
76857;DHT22;65829;44.726;37.764;2022-12-13T10:09:54;14.11;90.53
76857;DHT22;65829;44.726;37.764;2022-12-13T10:12:24;14.14;91.08
76857;DHT22;65829;44.726;37.764;2022-12-13T10:14:56;14.18;91.09
76857;DHT22;65829;44.726;37.764;2022-12-13T10:17:26;14.15;91.22
76857;DHT22;65829;44.726;37.764;2022-12-13T10:19:53;14.20;91.48
76857;DHT22;65829;44.726;37.764;2022-12-13T10:22:20;14.17;91.77
76857;DHT22;65829;44.726;37.764;2022-12-13T10:25:01;14.19;92.44
76857;DHT22;65829;44.726;37.764;2022-12-13T10:27:45;14.18;92.08
76857;DHT22;65829;44.726;37.764;2022-12-13T10:30:18;14.23;92.18
76857;DHT22;65829;44.726;37.764;2022-12-13T10:33:03;14.24;92.13
76857;DHT22;65829;44.726;37.764;2022-12-13T10:45:20;14.17;93.06
76857;DHT22;65829;44.726;37.764;2022-12-13T10:47:47;14.19;92.72
76857;DHT22;65829;44.726;37.764;2022-12-13T10:50:27;14.20;92.83
76857;DHT22;65829;44.726;37.764;2022-12-13T10:52:55;14.21;92.65
76857;DHT22;65829;44.726;37.764;2022-12-13T10:55:32;14.20;93.20
76857;DHT22;65829;44.726;37.764;2022-12-13T10:58:04;14.22;93.40
76857;DHT22;65829;44.726;37.764;2022-12-13T11:00:43;14.22;92.66
76857;DHT22;65829;44.726;37.764;2022-12-13T11:03:27;14.22;92.92
76857;DHT22;65829;44.726;37.764;2022-12-13T11:06:14;14.26;93.10
76857;DHT22;65829;44.726;37.764;2022-12-13T11:08:41;14.25;92.49
76857;DHT22;65829;44.726;37.764;2022-12-13T11:11:09;14.25;92.85
76857;DHT22;65829;44.726;37.764;2022-12-13T11:14:00;14.26;93.04
76857;DHT22;65829;44.726;37.764;2022-12-13T11:16:38;14.26;92.97
76857;DHT22;65829;44.726;37.764;2022-12-13T11:19:15;14.29;93.50
76857;DHT22;65829;44.726;37.764;2022-12-13T11:21:47;14.28;93.59
76857;DHT22;65829;44.726;37.764;2022-12-13T11:24:26;14.25;93.73
76857;DHT22;65829;44.726;37.764;2022-12-13T11:27:01;14.28;93.53
76857;DHT22;65829;44.726;37.764;2022-12-13T11:29:40;14.25;93.10
76857;DHT22;65829;44.726;37.764;2022-12-13T11:32:22;14.25;92.37
76857;DHT22;65829;44.726;37.764;2022-12-13T11:43:34;14.25;92.98
76857;DHT22;65829;44.726;37.764;2022-12-13T11:46:10;14.24;93.17
76857;DHT22;65829;44.726;37.764;2022-12-13T11:49:00;14.30;92.98
76857;DHT22;65829;44.726;37.764;2022-12-13T11:51:43;14.27;93.43
76857;DHT22;65829;44.726;37.764;2022-12-13T11:57:15;14.29;93.73
76857;DHT22;65829;44.726;37.764;2022-12-13T11:59:54;14.27;93.36
76857;DHT22;65829;44.726;37.764;2022-12-13T12:02:40;14.27;93.25
76857;DHT22;65829;44.726;37.764;2022-12-13T12:07:54;14.27;93.62
76857;DHT22;65829;44.726;37.764;2022-12-13T12:10:33;14.29;93.30
76857;DHT22;65829;44.726;37.764;2022-12-13T12:13:22;14.28;93.04
76857;DHT22;65829;44.726;37.764;2022-12-13T12:16:05;14.24;92.65
76857;DHT22;65829;44.726;37.764;2022-12-13T12:18:33;14.25;92.77
76857;DHT22;65829;44.726;37.764;2022-12-13T12:21:27;14.26;93.33
76857;DHT22;65829;44.726;37.764;2022-12-13T12:38:08;14.27;93.82
76857;DHT22;65829;44.726;37.764;2022-12-13T12:40:48;14.25;94.13
76857;DHT22;65829;44.726;37.764;2022-12-13T12:43:37;14.24;94.00
76857;DHT22;65829;44.726;37.764;2022-12-13T12:59:52;14.26;94.45
76857;DHT22;65829;44.726;37.764;2022-12-13T13:03:07;14.27;94.55
76857;DHT22;65829;44.726;37.764;2022-12-13T13:05:46;14.25;94.60
76857;DHT22;65829;44.726;37.764;2022-12-13T13:08:46;14.23;95.15
76857;DHT22;65829;44.726;37.764;2022-12-13T13:11:15;14.24;94.92
76857;DHT22;65829;44.726;37.764;2022-12-13T13:13:59;14.25;94.81
76857;DHT22;65829;44.726;37.764;2022-12-13T13:18:54;14.23;95.26
76857;DHT22;65829;44.726;37.764;2022-12-13T13:21:25;14.21;95.27
76857;DHT22;65829;44.726;37.764;2022-12-13T13:24:04;14.19;95.84
76857;DHT22;65829;44.726;37.764;2022-12-13T13:26:33;14.22;95.65
76857;DHT22;65829;44.726;37.764;2022-12-13T13:29:20;14.23;95.71
76857;DHT22;65829;44.726;37.764;2022-12-13T13:34:47;14.26;96.53
76857;DHT22;65829;44.726;37.764;2022-12-13T13:40:00;14.41;94.87
76857;DHT22;65829;44.726;37.764;2022-12-13T13:42:28;14.38;94.83
76857;DHT22;65829;44.726;37.764;2022-12-13T13:45:17;14.37;95.03
76857;DHT22;65829;44.726;37.764;2022-12-13T13:47:53;14.36;95.25
76857;DHT22;65829;44.726;37.764;2022-12-13T14:06:39;14.30;96.18
76857;DHT22;65829;44.726;37.764;2022-12-13T14:09:31;14.32;96.20
76857;DHT22;65829;44.726;37.764;2022-12-13T14:28:50;14.34;95.78
76857;DHT22;65829;44.726;37.764;2022-12-13T14:31:24;14.34;95.74
76857;DHT22;65829;44.726;37.764;2022-12-13T14:33:53;14.35;95.68
76857;DHT22;65829;44.726;37.764;2022-12-13T14:36:29;14.35;95.71
76857;DHT22;65829;44.726;37.764;2022-12-13T14:39:03;14.33;95.91
76857;DHT22;65829;44.726;37.764;2022-12-13T14:41:30;14.32;96.26
76857;DHT22;65829;44.726;37.764;2022-12-13T14:44:20;14.28;96.84
76857;DHT22;65829;44.726;37.764;2022-12-13T14:46:49;14.26;96.38
76857;DHT22;65829;44.726;37.764;2022-12-13T14:49:16;14.26;96.51
76857;DHT22;65829;44.726;37.764;2022-12-13T14:51:42;14.25;96.49
76857;DHT22;65829;44.726;37.764;2022-12-13T14:54:18;14.23;96.49
76857;DHT22;65829;44.726;37.764;2022-12-13T14:56:56;14.24;96.23
76857;DHT22;65829;44.726;37.764;2022-12-13T14:59:23;14.24;95.94
76857;DHT22;65829;44.726;37.764;2022-12-13T15:01:59;14.25;96.37
76857;DHT22;65829;44.726;37.764;2022-12-13T15:04:31;14.25;96.31
76857;DHT22;65829;44.726;37.764;2022-12-13T15:07:04;14.24;96.33
76857;DHT22;65829;44.726;37.764;2022-12-13T15:09:37;14.25;96.10
76857;DHT22;65829;44.726;37.764;2022-12-13T15:12:12;14.22;95.88
76857;DHT22;65829;44.726;37.764;2022-12-13T15:14:45;14.23;95.51
76857;DHT22;65829;44.726;37.764;2022-12-13T15:17:39;14.22;95.41
76857;DHT22;65829;44.726;37.764;2022-12-13T15:20:27;14.22;94.72
76857;DHT22;65829;44.726;37.764;2022-12-13T15:23:10;14.26;93.75
76857;DHT22;65829;44.726;37.764;2022-12-13T15:25:40;14.27;93.06
76857;DHT22;65829;44.726;37.764;2022-12-13T15:28:10;14.28;92.98
76857;DHT22;65829;44.726;37.764;2022-12-13T15:30:38;14.26;92.13
76857;DHT22;65829;44.726;37.764;2022-12-13T15:35:42;14.23;91.99
76857;DHT22;65829;44.726;37.764;2022-12-13T15:38:11;14.24;92.94
76857;DHT22;65829;44.726;37.764;2022-12-13T15:40:46;14.25;91.97
76857;DHT22;65829;44.726;37.764;2022-12-13T15:43:19;14.24;92.73
76857;DHT22;65829;44.726;37.764;2022-12-13T15:45:49;14.21;91.99
76857;DHT22;65829;44.726;37.764;2022-12-13T15:48:28;14.21;91.83
76857;DHT22;65829;44.726;37.764;2022-12-13T15:51:07;14.15;90.82
76857;DHT22;65829;44.726;37.764;2022-12-13T15:53:36;14.11;90.08
76857;DHT22;65829;44.726;37.764;2022-12-13T15:56:25;14.05;89.36
76857;DHT22;65829;44.726;37.764;2022-12-13T15:58:52;14.03;88.73
76857;DHT22;65829;44.726;37.764;2022-12-13T16:01:30;13.98;88.27
76857;DHT22;65829;44.726;37.764;2022-12-13T16:03:57;13.95;88.09
76857;DHT22;65829;44.726;37.764;2022-12-13T16:06:25;13.91;86.73
76857;DHT22;65829;44.726;37.764;2022-12-13T16:09:01;13.88;88.17
76857;DHT22;65829;44.726;37.764;2022-12-13T16:11:32;13.84;88.51
76857;DHT22;65829;44.726;37.764;2022-12-13T16:17:20;13.77;86.65
76857;DHT22;65829;44.726;37.764;2022-12-13T16:19:53;13.79;87.62
76857;DHT22;65829;44.726;37.764;2022-12-13T16:22:20;13.78;86.97
76857;DHT22;65829;44.726;37.764;2022-12-13T16:24:51;13.80;86.76
76857;DHT22;65829;44.726;37.764;2022-12-13T16:27:19;13.79;85.67
76857;DHT22;65829;44.726;37.764;2022-12-13T16:29:45;13.74;87.61
76857;DHT22;65829;44.726;37.764;2022-12-13T16:32:13;13.63;85.78
76857;DHT22;65829;44.726;37.764;2022-12-13T16:34:39;13.61;88.51
76857;DHT22;65829;44.726;37.764;2022-12-13T16:37:08;13.61;87.23
76857;DHT22;65829;44.726;37.764;2022-12-13T16:39:36;13.49;87.88
76857;DHT22;65829;44.726;37.764;2022-12-13T16:42:02;13.32;87.73
76857;DHT22;65829;44.726;37.764;2022-12-13T16:44:34;12.96;86.20
76857;DHT22;65829;44.726;37.764;2022-12-13T16:47:01;12.67;87.26
76857;DHT22;65829;44.726;37.764;2022-12-13T16:49:32;12.49;86.74
76857;DHT22;65829;44.726;37.764;2022-12-13T16:51:58;12.33;86.59
76857;DHT22;65829;44.726;37.764;2022-12-13T16:54:25;12.20;85.55
76857;DHT22;65829;44.726;37.764;2022-12-13T16:56:52;12.08;85.89
76857;DHT22;65829;44.726;37.764;2022-12-13T16:59:22;11.91;85.53
76857;DHT22;65829;44.726;37.764;2022-12-13T17:01:51;11.74;85.87
76857;DHT22;65829;44.726;37.764;2022-12-13T17:04:20;11.68;85.71
76857;DHT22;65829;44.726;37.764;2022-12-13T17:06:52;11.57;85.15
76857;DHT22;65829;44.726;37.764;2022-12-13T17:09:19;11.44;83.73
76857;DHT22;65829;44.726;37.764;2022-12-13T17:11:45;11.33;85.42
76857;DHT22;65829;44.726;37.764;2022-12-13T17:14:12;11.20;83.88
76857;DHT22;65829;44.726;37.764;2022-12-13T17:16:38;11.17;84.42
76857;DHT22;65829;44.726;37.764;2022-12-13T17:19:05;11.02;84.42
76857;DHT22;65829;44.726;37.764;2022-12-13T17:21:32;10.90;84.55
76857;DHT22;65829;44.726;37.764;2022-12-13T17:24:00;10.82;84.55
76857;DHT22;65829;44.726;37.764;2022-12-13T17:26:28;10.79;85.90
76857;DHT22;65829;44.726;37.764;2022-12-13T17:28:55;10.75;84.97
76857;DHT22;65829;44.726;37.764;2022-12-13T17:31:21;10.69;85.18
76857;DHT22;65829;44.726;37.764;2022-12-13T17:33:48;10.66;86.09
76857;DHT22;65829;44.726;37.764;2022-12-13T17:36:15;10.55;84.51
76857;DHT22;65829;44.726;37.764;2022-12-13T17:38:43;10.51;85.83
76857;DHT22;65829;44.726;37.764;2022-12-13T17:41:14;10.42;85.25
76857;DHT22;65829;44.726;37.764;2022-12-13T17:43:41;10.38;85.66
76857;DHT22;65829;44.726;37.764;2022-12-13T17:46:13;10.37;86.29
76857;DHT22;65829;44.726;37.764;2022-12-13T17:48:41;10.31;86.00
76857;DHT22;65829;44.726;37.764;2022-12-13T17:51:09;10.30;85.56